createdAt,value
2022-11-05T00:03:56.919Z,124
2022-11-05T00:23:56.841Z,127
2022-11-05T00:43:56.881Z,127
2022-11-05T01:03:56.877Z,127
2022-11-05T01:23:56.929Z,124
2022-11-05T01:43:56.961Z,125
2022-11-05T02:03:56.974Z,125
2022-11-05T02:23:56.999Z,128
2022-11-05T03:03:57.076Z,127
2022-11-05T03:23:57.117Z,127
2022-11-05T03:43:57.139Z,126
2022-11-05T04:03:57.156Z,131
2022-11-05T04:23:57.197Z,126
2022-11-05T04:43:57.282Z,127
2022-11-05T05:03:57.234Z,124
2022-11-05T05:23:57.269Z,123
2022-11-05T06:03:57.312Z,126
2022-11-05T06:23:57.390Z,127
2022-11-05T06:43:57.374Z,128
2022-11-05T07:03:57.423Z,132
2022-11-05T07:23:57.442Z,131
2022-11-05T07:43:57.485Z,131
2022-11-05T08:03:57.509Z,131
2022-11-05T08:43:57.551Z,129
2022-11-05T09:03:57.589Z,131
2022-11-05T09:23:57.618Z,130
2022-11-05T09:43:57.645Z,128
2022-11-05T10:03:57.660Z,132
2022-11-05T10:23:57.697Z,132
2022-11-05T10:43:57.717Z,129
2022-11-05T11:03:57.763Z,131
2022-11-05T12:03:57.803Z,125
2022-11-05T12:23:57.829Z,126
2022-11-05T12:43:57.840Z,123
2022-11-05T13:03:57.890Z,123
2022-11-05T13:23:57.984Z,125
2022-11-05T13:43:57.944Z,122
2022-11-05T14:03:58.022Z,123
2022-11-05T14:23:57.978Z,123
2022-11-05T14:43:57.996Z,124
2022-11-05T15:03:58.035Z,123
2022-11-05T15:23:57.520Z,124
2022-11-05T15:43:58.038Z,122
2022-11-05T16:03:58.064Z,121
2022-11-05T16:23:58.071Z,122
2022-11-05T16:43:58.104Z,123
2022-11-05T17:03:58.126Z,123
2022-11-05T17:23:58.168Z,124
2022-11-05T17:43:58.161Z,126
2022-11-05T18:04:00.351Z,123
2022-11-05T18:23:58.226Z,124
2022-11-05T18:43:58.220Z,124
2022-11-05T19:03:58.259Z,125
2022-11-05T19:23:58.305Z,127
2022-11-05T19:43:58.300Z,125
2022-11-05T20:03:58.369Z,125
2022-11-05T20:23:58.344Z,124
2022-11-05T20:43:58.395Z,122
2022-11-05T21:03:58.388Z,123
2022-11-05T21:23:58.419Z,123
2022-11-05T21:43:58.446Z,124
2022-11-05T22:04:02.775Z,122
2022-11-05T22:23:58.585Z,123
2022-11-05T22:43:58.533Z,125
2022-11-05T23:03:58.606Z,124
2022-11-05T23:23:58.533Z,125
2022-11-05T23:43:58.575Z,128
